sensor_id;sensor_type;location;lat;lon;timestamp;temperature;humidity
9371;DHT22;4725;48.384;8.984;2023-05-07T00:00:41;12.50;99.90
9371;DHT22;4725;48.384;8.984;2023-05-07T00:03:09;12.50;99.90
9371;DHT22;4725;48.384;8.984;2023-05-07T00:05:38;12.50;99.90
9371;DHT22;4725;48.384;8.984;2023-05-07T00:08:05;12.60;99.90
9371;DHT22;4725;48.384;8.984;2023-05-07T00:10:32;12.50;99.90
9371;DHT22;4725;48.384;8.984;2023-05-07T00:12:59;12.40;99.90
9371;DHT22;4725;48.384;8.984;2023-05-07T00:15:26;12.40;99.90
9371;DHT22;4725;48.384;8.984;2023-05-07T00:17:53;12.40;99.90
9371;DHT22;4725;48.384;8.984;2023-05-07T00:20:20;12.40;99.90
9371;DHT22;4725;48.384;8.984;2023-05-07T00:22:48;12.40;99.90
9371;DHT22;4725;48.384;8.984;2023-05-07T00:25:15;12.20;99.90
9371;DHT22;4725;48.384;8.984;2023-05-07T00:27:42;12.20;99.90
9371;DHT22;4725;48.384;8.984;2023-05-07T00:30:10;12.10;99.90
9371;DHT22;4725;48.384;8.984;2023-05-07T00:32:37;12.20;99.90
9371;DHT22;4725;48.384;8.984;2023-05-07T00:35:05;12.20;99.90
9371;DHT22;4725;48.384;8.984;2023-05-07T00:37:32;12.20;99.90
9371;DHT22;4725;48.384;8.984;2023-05-07T00:40:00;12.10;99.90
9371;DHT22;4725;48.384;8.984;2023-05-07T00:42:29;12.00;99.90
9371;DHT22;4725;48.384;8.984;2023-05-07T00:44:57;11.90;99.90
9371;DHT22;4725;48.384;8.984;2023-05-07T00:47:25;11.80;99.90
9371;DHT22;4725;48.384;8.984;2023-05-07T00:49:52;11.90;99.90
9371;DHT22;4725;48.384;8.984;2023-05-07T00:52:20;11.60;99.90
9371;DHT22;4725;48.384;8.984;2023-05-07T00:54:48;11.70;99.90
9371;DHT22;4725;48.384;8.984;2023-05-07T00:57:16;11.70;99.90
9371;DHT22;4725;48.384;8.984;2023-05-07T00:59:43;11.80;99.90
9371;DHT22;4725;48.384;8.984;2023-05-07T01:02:10;11.60;99.90
9371;DHT22;4725;48.384;8.984;2023-05-07T01:04:37;11.60;99.90
9371;DHT22;4725;48.384;8.984;2023-05-07T01:07:05;11.60;99.90
9371;DHT22;4725;48.384;8.984;2023-05-07T01:09:32;11.50;99.90
9371;DHT22;4725;48.384;8.984;2023-05-07T01:12:00;11.40;99.90
9371;DHT22;4725;48.384;8.984;2023-05-07T01:16:56;11.50;99.90
9371;DHT22;4725;48.384;8.984;2023-05-07T01:19:24;11.50;99.90
9371;DHT22;4725;48.384;8.984;2023-05-07T01:21:55;11.50;99.90
9371;DHT22;4725;48.384;8.984;2023-05-07T01:24:25;11.40;99.90
9371;DHT22;4725;48.384;8.984;2023-05-07T01:26:52;11.40;99.90
9371;DHT22;4725;48.384;8.984;2023-05-07T01:29:19;11.30;99.90
9371;DHT22;4725;48.384;8.984;2023-05-07T01:31:47;11.10;99.90
9371;DHT22;4725;48.384;8.984;2023-05-07T01:34:14;11.00;99.90
9371;DHT22;4725;48.384;8.984;2023-05-07T01:36:44;11.00;99.90
9371;DHT22;4725;48.384;8.984;2023-05-07T01:39:12;11.00;99.90
9371;DHT22;4725;48.384;8.984;2023-05-07T01:41:40;10.90;99.90
9371;DHT22;4725;48.384;8.984;2023-05-07T01:44:08;11.00;99.90
9371;DHT22;4725;48.384;8.984;2023-05-07T01:46:36;11.00;99.90
9371;DHT22;4725;48.384;8.984;2023-05-07T01:49:03;11.00;99.90
9371;DHT22;4725;48.384;8.984;2023-05-07T01:51:30;10.90;99.90
9371;DHT22;4725;48.384;8.984;2023-05-07T01:53:57;10.80;99.90
9371;DHT22;4725;48.384;8.984;2023-05-07T01:56:24;10.80;99.90
9371;DHT22;4725;48.384;8.984;2023-05-07T01:58:52;10.90;99.90
9371;DHT22;4725;48.384;8.984;2023-05-07T02:01:20;10.80;99.90
9371;DHT22;4725;48.384;8.984;2023-05-07T02:03:46;10.70;99.90
9371;DHT22;4725;48.384;8.984;2023-05-07T02:08:40;10.60;99.90
9371;DHT22;4725;48.384;8.984;2023-05-07T02:11:07;10.60;99.90
9371;DHT22;4725;48.384;8.984;2023-05-07T02:13:34;10.60;99.90
9371;DHT22;4725;48.384;8.984;2023-05-07T02:16:03;10.60;99.90
9371;DHT22;4725;48.384;8.984;2023-05-07T02:18:31;10.60;99.90
9371;DHT22;4725;48.384;8.984;2023-05-07T02:20:58;10.50;99.90
9371;DHT22;4725;48.384;8.984;2023-05-07T02:23:25;10.50;99.90
9371;DHT22;4725;48.384;8.984;2023-05-07T02:25:52;10.50;99.90
9371;DHT22;4725;48.384;8.984;2023-05-07T02:28:19;10.40;99.90
9371;DHT22;4725;48.384;8.984;2023-05-07T02:30:45;10.30;99.90
9371;DHT22;4725;48.384;8.984;2023-05-07T02:33:14;10.20;99.90
9371;DHT22;4725;48.384;8.984;2023-05-07T02:35:40;10.20;99.90
9371;DHT22;4725;48.384;8.984;2023-05-07T02:40:36;10.10;99.90
9371;DHT22;4725;48.384;8.984;2023-05-07T02:43:04;10.00;99.90
9371;DHT22;4725;48.384;8.984;2023-05-07T02:45:31;10.00;99.90
9371;DHT22;4725;48.384;8.984;2023-05-07T02:47:58;10.00;99.90
9371;DHT22;4725;48.384;8.984;2023-05-07T02:55:21;9.10;99.90
9371;DHT22;4725;48.384;8.984;2023-05-07T02:57:48;9.50;99.90
9371;DHT22;4725;48.384;8.984;2023-05-07T03:00:16;9.20;99.90
9371;DHT22;4725;48.384;8.984;2023-05-07T03:02:44;9.20;99.90
9371;DHT22;4725;48.384;8.984;2023-05-07T03:05:11;9.20;99.90
9371;DHT22;4725;48.384;8.984;2023-05-07T03:07:41;9.10;99.90
9371;DHT22;4725;48.384;8.984;2023-05-07T03:10:10;9.10;99.90
9371;DHT22;4725;48.384;8.984;2023-05-07T03:12:37;9.20;99.90
9371;DHT22;4725;48.384;8.984;2023-05-07T03:15:05;9.00;99.90
9371;DHT22;4725;48.384;8.984;2023-05-07T03:17:32;8.90;99.90
9371;DHT22;4725;48.384;8.984;2023-05-07T03:19:59;8.80;99.90
9371;DHT22;4725;48.384;8.984;2023-05-07T03:22:25;8.80;99.90
9371;DHT22;4725;48.384;8.984;2023-05-07T03:24:54;8.80;99.90
9371;DHT22;4725;48.384;8.984;2023-05-07T03:29:48;8.90;99.90
9371;DHT22;4725;48.384;8.984;2023-05-07T03:32:14;8.80;99.90
9371;DHT22;4725;48.384;8.984;2023-05-07T03:34:41;9.00;99.90
9371;DHT22;4725;48.384;8.984;2023-05-07T03:37:08;9.10;99.90
9371;DHT22;4725;48.384;8.984;2023-05-07T03:39:35;9.30;99.90
9371;DHT22;4725;48.384;8.984;2023-05-07T03:42:03;9.30;99.90
9371;DHT22;4725;48.384;8.984;2023-05-07T03:46:57;9.10;99.90
9371;DHT22;4725;48.384;8.984;2023-05-07T03:49:24;9.20;99.90
9371;DHT22;4725;48.384;8.984;2023-05-07T03:54:19;9.20;99.90
9371;DHT22;4725;48.384;8.984;2023-05-07T03:56:46;9.20;99.90
9371;DHT22;4725;48.384;8.984;2023-05-07T03:59:14;9.20;99.90
9371;DHT22;4725;48.384;8.984;2023-05-07T04:01:41;9.30;99.90
9371;DHT22;4725;48.384;8.984;2023-05-07T04:04:08;11.30;99.90
9371;DHT22;4725;48.384;8.984;2023-05-07T04:06:35;9.40;99.90
9371;DHT22;4725;48.384;8.984;2023-05-07T04:11:30;9.40;99.90
9371;DHT22;4725;48.384;8.984;2023-05-07T04:13:56;9.50;99.90
9371;DHT22;4725;48.384;8.984;2023-05-07T04:16:25;9.60;99.90
9371;DHT22;4725;48.384;8.984;2023-05-07T04:18:51;9.40;99.90
9371;DHT22;4725;48.384;8.984;2023-05-07T04:21:19;9.40;99.90
9371;DHT22;4725;48.384;8.984;2023-05-07T04:23:47;9.30;99.90
9371;DHT22;4725;48.384;8.984;2023-05-07T04:26:15;9.30;99.90
9371;DHT22;4725;48.384;8.984;2023-05-07T04:28:43;9.30;99.90
9371;DHT22;4725;48.384;8.984;2023-05-07T04:31:10;9.40;99.90
9371;DHT22;4725;48.384;8.984;2023-05-07T04:36:05;9.00;99.90
9371;DHT22;4725;48.384;8.984;2023-05-07T04:38:33;9.00;99.90
9371;DHT22;4725;48.384;8.984;2023-05-07T04:41:03;8.90;99.90
9371;DHT22;4725;48.384;8.984;2023-05-07T04:43:30;9.30;99.90
9371;DHT22;4725;48.384;8.984;2023-05-07T04:45:57;9.40;99.90
9371;DHT22;4725;48.384;8.984;2023-05-07T04:48:24;9.50;99.90
9371;DHT22;4725;48.384;8.984;2023-05-07T04:50:53;9.80;99.90
9371;DHT22;4725;48.384;8.984;2023-05-07T04:53:20;10.10;99.90
9371;DHT22;4725;48.384;8.984;2023-05-07T04:55:48;10.10;99.90
9371;DHT22;4725;48.384;8.984;2023-05-07T04:58:15;10.20;99.90
9371;DHT22;4725;48.384;8.984;2023-05-07T05:00:41;10.30;99.90
9371;DHT22;4725;48.384;8.984;2023-05-07T05:03:09;10.40;99.90
9371;DHT22;4725;48.384;8.984;2023-05-07T05:05:36;10.40;99.90
9371;DHT22;4725;48.384;8.984;2023-05-07T05:08:05;10.50;99.90
9371;DHT22;4725;48.384;8.984;2023-05-07T05:10:31;10.60;99.90
9371;DHT22;4725;48.384;8.984;2023-05-07T05:12:58;10.80;99.90
9371;DHT22;4725;48.384;8.984;2023-05-07T05:15:25;10.90;99.90
9371;DHT22;4725;48.384;8.984;2023-05-07T05:17:52;11.00;99.90
9371;DHT22;4725;48.384;8.984;2023-05-07T05:20:19;11.00;99.90
9371;DHT22;4725;48.384;8.984;2023-05-07T05:22:45;11.00;99.90
9371;DHT22;4725;48.384;8.984;2023-05-07T05:25:14;11.10;99.90
9371;DHT22;4725;48.384;8.984;2023-05-07T05:27:41;11.10;99.90
9371;DHT22;4725;48.384;8.984;2023-05-07T05:30:08;11.30;99.90
9371;DHT22;4725;48.384;8.984;2023-05-07T05:32:35;11.30;99.90
9371;DHT22;4725;48.384;8.984;2023-05-07T05:35:02;11.50;99.90
9371;DHT22;4725;48.384;8.984;2023-05-07T05:37:29;11.60;99.90
9371;DHT22;4725;48.384;8.984;2023-05-07T05:39:56;11.70;99.90
9371;DHT22;4725;48.384;8.984;2023-05-07T05:42:25;11.90;99.90
9371;DHT22;4725;48.384;8.984;2023-05-07T05:44:51;11.90;99.90
9371;DHT22;4725;48.384;8.984;2023-05-07T05:47:18;12.00;99.90
9371;DHT22;4725;48.384;8.984;2023-05-07T05:49:45;12.20;99.90
9371;DHT22;4725;48.384;8.984;2023-05-07T05:52:12;12.30;99.90
9371;DHT22;4725;48.384;8.984;2023-05-07T05:54:40;12.50;99.90
9371;DHT22;4725;48.384;8.984;2023-05-07T05:57:06;12.70;99.90
9371;DHT22;4725;48.384;8.984;2023-05-07T05:59:35;12.90;99.90
9371;DHT22;4725;48.384;8.984;2023-05-07T06:02:02;12.90;99.90
9371;DHT22;4725;48.384;8.984;2023-05-07T06:04:29;13.10;99.90
9371;DHT22;4725;48.384;8.984;2023-05-07T06:06:56;13.20;99.90
9371;DHT22;4725;48.384;8.984;2023-05-07T06:09:23;13.30;99.90
9371;DHT22;4725;48.384;8.984;2023-05-07T06:11:50;13.40;99.90
9371;DHT22;4725;48.384;8.984;2023-05-07T06:14:17;13.70;99.90
9371;DHT22;4725;48.384;8.984;2023-05-07T06:16:45;13.80;99.90
9371;DHT22;4725;48.384;8.984;2023-05-07T06:19:12;14.10;99.90
9371;DHT22;4725;48.384;8.984;2023-05-07T06:21:39;14.30;99.90
9371;DHT22;4725;48.384;8.984;2023-05-07T06:24:07;14.30;99.90
9371;DHT22;4725;48.384;8.984;2023-05-07T06:26:33;14.30;99.90
9371;DHT22;4725;48.384;8.984;2023-05-07T06:29:00;14.40;99.90
9371;DHT22;4725;48.384;8.984;2023-05-07T06:31:30;14.50;99.90
9371;DHT22;4725;48.384;8.984;2023-05-07T06:33:59;14.70;99.90
9371;DHT22;4725;48.384;8.984;2023-05-07T06:36:27;14.80;99.90
9371;DHT22;4725;48.384;8.984;2023-05-07T06:38:54;15.00;99.90
9371;DHT22;4725;48.384;8.984;2023-05-07T06:41:21;15.10;99.90
9371;DHT22;4725;48.384;8.984;2023-05-07T06:43:48;15.00;99.90
9371;DHT22;4725;48.384;8.984;2023-05-07T06:46:15;14.90;99.90
9371;DHT22;4725;48.384;8.984;2023-05-07T06:48:42;14.90;99.90
9371;DHT22;4725;48.384;8.984;2023-05-07T06:51:11;15.00;99.90
9371;DHT22;4725;48.384;8.984;2023-05-07T06:53:37;15.00;99.90
9371;DHT22;4725;48.384;8.984;2023-05-07T06:56:05;15.10;99.90
9371;DHT22;4725;48.384;8.984;2023-05-07T06:58:32;15.10;99.90
9371;DHT22;4725;48.384;8.984;2023-05-07T07:00:59;15.20;99.90
9371;DHT22;4725;48.384;8.984;2023-05-07T07:03:25;15.20;99.90
9371;DHT22;4725;48.384;8.984;2023-05-07T07:05:52;15.20;99.90
9371;DHT22;4725;48.384;8.984;2023-05-07T07:08:22;15.10;99.90
9371;DHT22;4725;48.384;8.984;2023-05-07T07:10:49;15.30;99.90
9371;DHT22;4725;48.384;8.984;2023-05-07T07:13:15;16.00;99.90
9371;DHT22;4725;48.384;8.984;2023-05-07T07:15:43;16.00;99.90
9371;DHT22;4725;48.384;8.984;2023-05-07T07:18:10;16.40;99.90
9371;DHT22;4725;48.384;8.984;2023-05-07T07:20:37;16.30;99.90
9371;DHT22;4725;48.384;8.984;2023-05-07T07:25:32;17.20;99.90
9371;DHT22;4725;48.384;8.984;2023-05-07T07:27:59;17.30;99.90
9371;DHT22;4725;48.384;8.984;2023-05-07T07:30:26;17.60;99.90
9371;DHT22;4725;48.384;8.984;2023-05-07T07:32:53;17.90;99.90
9371;DHT22;4725;48.384;8.984;2023-05-07T07:35:21;17.90;99.90
9371;DHT22;4725;48.384;8.984;2023-05-07T07:37:48;18.00;99.90
9371;DHT22;4725;48.384;8.984;2023-05-07T07:40:16;17.80;99.90
9371;DHT22;4725;48.384;8.984;2023-05-07T07:45:11;17.90;99.90
9371;DHT22;4725;48.384;8.984;2023-05-07T07:47:39;18.10;99.90
9371;DHT22;4725;48.384;8.984;2023-05-07T07:50:06;18.50;99.90
9371;DHT22;4725;48.384;8.984;2023-05-07T07:52:33;18.80;99.90
9371;DHT22;4725;48.384;8.984;2023-05-07T07:57:28;19.00;99.90
9371;DHT22;4725;48.384;8.984;2023-05-07T07:59:56;18.90;99.90
9371;DHT22;4725;48.384;8.984;2023-05-07T08:02:23;18.90;99.90
9371;DHT22;4725;48.384;8.984;2023-05-07T08:04:49;18.80;99.90
9371;DHT22;4725;48.384;8.984;2023-05-07T08:07:16;18.90;99.90
9371;DHT22;4725;48.384;8.984;2023-05-07T08:09:46;19.20;99.90
9371;DHT22;4725;48.384;8.984;2023-05-07T08:12:12;19.40;99.90
9371;DHT22;4725;48.384;8.984;2023-05-07T08:14:39;19.50;99.90
9371;DHT22;4725;48.384;8.984;2023-05-07T08:17:08;19.40;99.90
9371;DHT22;4725;48.384;8.984;2023-05-07T08:19:35;19.70;99.90
9371;DHT22;4725;48.384;8.984;2023-05-07T08:22:02;20.00;99.90
9371;DHT22;4725;48.384;8.984;2023-05-07T08:24:29;20.00;99.90
9371;DHT22;4725;48.384;8.984;2023-05-07T08:26:56;19.90;99.90
9371;DHT22;4725;48.384;8.984;2023-05-07T08:29:23;19.70;99.90
9371;DHT22;4725;48.384;8.984;2023-05-07T08:31:50;20.00;99.90
9371;DHT22;4725;48.384;8.984;2023-05-07T08:34:18;19.80;99.90
9371;DHT22;4725;48.384;8.984;2023-05-07T08:39:14;19.80;99.90
9371;DHT22;4725;48.384;8.984;2023-05-07T08:41:43;19.80;99.90
9371;DHT22;4725;48.384;8.984;2023-05-07T08:44:12;19.80;99.90
9371;DHT22;4725;48.384;8.984;2023-05-07T08:46:41;19.90;99.90
9371;DHT22;4725;48.384;8.984;2023-05-07T08:49:09;20.00;99.90
9371;DHT22;4725;48.384;8.984;2023-05-07T08:51:38;20.40;99.90
9371;DHT22;4725;48.384;8.984;2023-05-07T08:54:05;20.50;99.90
9371;DHT22;4725;48.384;8.984;2023-05-07T08:56:33;20.60;99.90
9371;DHT22;4725;48.384;8.984;2023-05-07T08:59:00;20.70;99.90
9371;DHT22;4725;48.384;8.984;2023-05-07T09:01:27;20.70;99.90
9371;DHT22;4725;48.384;8.984;2023-05-07T09:03:54;21.10;99.90
9371;DHT22;4725;48.384;8.984;2023-05-07T09:06:21;21.30;99.90
9371;DHT22;4725;48.384;8.984;2023-05-07T09:08:53;21.20;99.90
9371;DHT22;4725;48.384;8.984;2023-05-07T09:11:21;21.70;99.90
9371;DHT22;4725;48.384;8.984;2023-05-07T09:13:49;21.80;99.90
9371;DHT22;4725;48.384;8.984;2023-05-07T09:16:21;21.70;99.90
9371;DHT22;4725;48.384;8.984;2023-05-07T09:18:51;21.60;99.90
9371;DHT22;4725;48.384;8.984;2023-05-07T09:21:19;21.80;99.90
9371;DHT22;4725;48.384;8.984;2023-05-07T09:23:47;22.00;99.90
9371;DHT22;4725;48.384;8.984;2023-05-07T09:26:16;22.30;99.90
9371;DHT22;4725;48.384;8.984;2023-05-07T09:28:43;22.30;99.90
9371;DHT22;4725;48.384;8.984;2023-05-07T09:31:10;22.30;99.90
9371;DHT22;4725;48.384;8.984;2023-05-07T09:33:38;22.60;99.90
9371;DHT22;4725;48.384;8.984;2023-05-07T09:36:05;22.50;99.90
9371;DHT22;4725;48.384;8.984;2023-05-07T09:38:33;22.70;99.90
9371;DHT22;4725;48.384;8.984;2023-05-07T09:41:04;22.90;99.90
9371;DHT22;4725;48.384;8.984;2023-05-07T09:43:36;23.00;99.90
9371;DHT22;4725;48.384;8.984;2023-05-07T09:46:06;23.30;99.90
9371;DHT22;4725;48.384;8.984;2023-05-07T09:48:37;23.20;99.90
9371;DHT22;4725;48.384;8.984;2023-05-07T09:51:11;23.50;99.90
9371;DHT22;4725;48.384;8.984;2023-05-07T09:53:43;23.60;99.90
9371;DHT22;4725;48.384;8.984;2023-05-07T09:56:13;23.60;99.90
9371;DHT22;4725;48.384;8.984;2023-05-07T09:58:41;24.00;99.90
9371;DHT22;4725;48.384;8.984;2023-05-07T10:01:10;24.40;99.90
9371;DHT22;4725;48.384;8.984;2023-05-07T10:03:40;24.40;99.90
9371;DHT22;4725;48.384;8.984;2023-05-07T10:06:08;24.00;99.90
9371;DHT22;4725;48.384;8.984;2023-05-07T10:08:35;24.00;99.90
9371;DHT22;4725;48.384;8.984;2023-05-07T10:11:04;24.60;99.90
9371;DHT22;4725;48.384;8.984;2023-05-07T10:13:31;24.80;99.90
9371;DHT22;4725;48.384;8.984;2023-05-07T10:16:00;24.80;99.90
9371;DHT22;4725;48.384;8.984;2023-05-07T10:18:28;25.00;99.90
9371;DHT22;4725;48.384;8.984;2023-05-07T10:21:02;25.20;99.90
9371;DHT22;4725;48.384;8.984;2023-05-07T10:23:29;25.30;99.90
9371;DHT22;4725;48.384;8.984;2023-05-07T10:25:58;25.30;99.90
9371;DHT22;4725;48.384;8.984;2023-05-07T10:28:27;24.70;99.90
9371;DHT22;4725;48.384;8.984;2023-05-07T10:31:07;24.50;99.90
9371;DHT22;4725;48.384;8.984;2023-05-07T10:33:39;24.60;99.90
9371;DHT22;4725;48.384;8.984;2023-05-07T10:36:06;24.60;99.90
9371;DHT22;4725;48.384;8.984;2023-05-07T10:38:33;24.90;99.90
9371;DHT22;4725;48.384;8.984;2023-05-07T10:41:01;24.90;99.90
9371;DHT22;4725;48.384;8.984;2023-05-07T10:43:39;24.90;99.90
9371;DHT22;4725;48.384;8.984;2023-05-07T10:46:13;25.00;99.90
9371;DHT22;4725;48.384;8.984;2023-05-07T10:49:08;25.00;99.90
9371;DHT22;4725;48.384;8.984;2023-05-07T10:51:37;25.10;99.90
9371;DHT22;4725;48.384;8.984;2023-05-07T10:54:20;25.30;99.90
9371;DHT22;4725;48.384;8.984;2023-05-07T10:56:47;25.30;99.90
9371;DHT22;4725;48.384;8.984;2023-05-07T10:59:35;25.30;99.90
9371;DHT22;4725;48.384;8.984;2023-05-07T11:02:08;26.00;99.90
9371;DHT22;4725;48.384;8.984;2023-05-07T11:04:39;25.50;99.90
9371;DHT22;4725;48.384;8.984;2023-05-07T11:07:25;25.50;99.90
9371;DHT22;4725;48.384;8.984;2023-05-07T11:10:03;24.50;99.90
9371;DHT22;4725;48.384;8.984;2023-05-07T11:12:53;24.60;99.90
9371;DHT22;4725;48.384;8.984;2023-05-07T11:15:39;24.90;99.70
9371;DHT22;4725;48.384;8.984;2023-05-07T11:18:09;25.20;99.40
9371;DHT22;4725;48.384;8.984;2023-05-07T11:20:56;24.50;98.10
9371;DHT22;4725;48.384;8.984;2023-05-07T11:23:58;23.40;99.90
9371;DHT22;4725;48.384;8.984;2023-05-07T11:26:26;23.50;99.90
9371;DHT22;4725;48.384;8.984;2023-05-07T11:28:53;23.70;99.30
9371;DHT22;4725;48.384;8.984;2023-05-07T11:31:22;23.70;98.60
9371;DHT22;4725;48.384;8.984;2023-05-07T11:33:52;23.50;97.80
9371;DHT22;4725;48.384;8.984;2023-05-07T11:36:20;23.40;98.00
9371;DHT22;4725;48.384;8.984;2023-05-07T11:38:47;23.40;98.40
9371;DHT22;4725;48.384;8.984;2023-05-07T11:41:15;23.20;99.60
9371;DHT22;4725;48.384;8.984;2023-05-07T11:43:56;22.80;99.40
9371;DHT22;4725;48.384;8.984;2023-05-07T11:46:23;22.30;99.60
9371;DHT22;4725;48.384;8.984;2023-05-07T11:48:51;21.90;99.90
9371;DHT22;4725;48.384;8.984;2023-05-07T11:51:19;21.80;99.90
9371;DHT22;4725;48.384;8.984;2023-05-07T11:53:47;21.80;99.90
9371;DHT22;4725;48.384;8.984;2023-05-07T11:56:16;21.80;99.90
9371;DHT22;4725;48.384;8.984;2023-05-07T11:58:44;21.40;99.90
9371;DHT22;4725;48.384;8.984;2023-05-07T12:01:12;21.30;99.90
9371;DHT22;4725;48.384;8.984;2023-05-07T12:03:40;20.40;99.90
9371;DHT22;4725;48.384;8.984;2023-05-07T12:06:11;20.00;99.90
9371;DHT22;4725;48.384;8.984;2023-05-07T12:08:39;19.60;99.90
9371;DHT22;4725;48.384;8.984;2023-05-07T12:11:13;19.60;99.90
9371;DHT22;4725;48.384;8.984;2023-05-07T12:13:42;18.90;99.90
9371;DHT22;4725;48.384;8.984;2023-05-07T12:16:09;18.70;99.90
9371;DHT22;4725;48.384;8.984;2023-05-07T12:18:36;18.50;99.90
9371;DHT22;4725;48.384;8.984;2023-05-07T12:21:05;18.10;99.90
9371;DHT22;4725;48.384;8.984;2023-05-07T12:23:35;17.70;99.90
9371;DHT22;4725;48.384;8.984;2023-05-07T12:26:03;17.70;99.90
9371;DHT22;4725;48.384;8.984;2023-05-07T12:28:31;17.60;99.90
9371;DHT22;4725;48.384;8.984;2023-05-07T12:31:02;16.80;99.90
9371;DHT22;4725;48.384;8.984;2023-05-07T12:33:29;16.40;99.90
9371;DHT22;4725;48.384;8.984;2023-05-07T12:35:58;16.40;99.90
9371;DHT22;4725;48.384;8.984;2023-05-07T12:38:36;16.20;99.90
9371;DHT22;4725;48.384;8.984;2023-05-07T12:41:04;16.10;99.90
9371;DHT22;4725;48.384;8.984;2023-05-07T12:43:31;15.80;99.90
9371;DHT22;4725;48.384;8.984;2023-05-07T12:46:00;15.80;99.90
9371;DHT22;4725;48.384;8.984;2023-05-07T12:48:28;15.50;99.90
9371;DHT22;4725;48.384;8.984;2023-05-07T12:50:55;15.00;99.90
9371;DHT22;4725;48.384;8.984;2023-05-07T12:53:23;14.40;99.90
9371;DHT22;4725;48.384;8.984;2023-05-07T12:55:54;14.30;99.90
9371;DHT22;4725;48.384;8.984;2023-05-07T12:58:24;14.10;99.90
9371;DHT22;4725;48.384;8.984;2023-05-07T13:00:52;14.00;99.90
9371;DHT22;4725;48.384;8.984;2023-05-07T13:03:24;13.90;99.90
9371;DHT22;4725;48.384;8.984;2023-05-07T13:05:51;13.80;99.90
9371;DHT22;4725;48.384;8.984;2023-05-07T13:08:29;13.70;99.90
9371;DHT22;4725;48.384;8.984;2023-05-07T13:10:59;13.70;99.90
9371;DHT22;4725;48.384;8.984;2023-05-07T13:13:28;13.30;99.90
9371;DHT22;4725;48.384;8.984;2023-05-07T13:15:55;13.30;99.90
9371;DHT22;4725;48.384;8.984;2023-05-07T13:18:23;13.30;99.90
9371;DHT22;4725;48.384;8.984;2023-05-07T13:20:50;13.10;99.90
9371;DHT22;4725;48.384;8.984;2023-05-07T13:23:17;13.10;99.90
9371;DHT22;4725;48.384;8.984;2023-05-07T13:25:44;13.10;99.90
9371;DHT22;4725;48.384;8.984;2023-05-07T13:28:12;13.10;99.90
9371;DHT22;4725;48.384;8.984;2023-05-07T13:30:39;13.10;99.90
9371;DHT22;4725;48.384;8.984;2023-05-07T13:33:07;13.20;99.90
9371;DHT22;4725;48.384;8.984;2023-05-07T13:35:34;13.40;99.90
9371;DHT22;4725;48.384;8.984;2023-05-07T13:38:01;13.40;99.90
9371;DHT22;4725;48.384;8.984;2023-05-07T13:40:28;13.60;99.90
9371;DHT22;4725;48.384;8.984;2023-05-07T13:42:56;13.70;99.90
9371;DHT22;4725;48.384;8.984;2023-05-07T13:45:25;13.80;99.90
9371;DHT22;4725;48.384;8.984;2023-05-07T13:47:52;13.80;99.90
9371;DHT22;4725;48.384;8.984;2023-05-07T13:50:19;13.80;99.90
9371;DHT22;4725;48.384;8.984;2023-05-07T13:52:46;13.70;99.90
9371;DHT22;4725;48.384;8.984;2023-05-07T13:55:16;13.70;99.90
9371;DHT22;4725;48.384;8.984;2023-05-07T13:57:43;13.80;99.90
9371;DHT22;4725;48.384;8.984;2023-05-07T14:00:11;13.70;99.90
9371;DHT22;4725;48.384;8.984;2023-05-07T14:02:39;13.60;99.90
9371;DHT22;4725;48.384;8.984;2023-05-07T14:05:07;13.70;99.90
9371;DHT22;4725;48.384;8.984;2023-05-07T14:07:35;13.70;99.90
9371;DHT22;4725;48.384;8.984;2023-05-07T14:10:02;13.70;99.90
9371;DHT22;4725;48.384;8.984;2023-05-07T14:12:29;13.80;99.90
9371;DHT22;4725;48.384;8.984;2023-05-07T14:14:56;13.80;99.90
9371;DHT22;4725;48.384;8.984;2023-05-07T14:17:23;13.80;99.90
9371;DHT22;4725;48.384;8.984;2023-05-07T14:19:54;13.80;99.90
9371;DHT22;4725;48.384;8.984;2023-05-07T14:22:21;13.80;99.90
9371;DHT22;4725;48.384;8.984;2023-05-07T14:24:49;13.80;99.90
9371;DHT22;4725;48.384;8.984;2023-05-07T14:27:16;13.90;99.90
9371;DHT22;4725;48.384;8.984;2023-05-07T14:29:43;13.90;99.90
9371;DHT22;4725;48.384;8.984;2023-05-07T14:32:11;13.90;99.90
9371;DHT22;4725;48.384;8.984;2023-05-07T14:34:37;13.90;99.90
9371;DHT22;4725;48.384;8.984;2023-05-07T14:37:06;14.10;99.90
9371;DHT22;4725;48.384;8.984;2023-05-07T14:39:32;14.10;99.90
9371;DHT22;4725;48.384;8.984;2023-05-07T14:41:59;14.20;99.90
9371;DHT22;4725;48.384;8.984;2023-05-07T14:44:26;14.30;99.90
9371;DHT22;4725;48.384;8.984;2023-05-07T14:46:53;14.30;99.90
9371;DHT22;4725;48.384;8.984;2023-05-07T14:49:20;14.40;99.90
9371;DHT22;4725;48.384;8.984;2023-05-07T14:51:47;14.30;99.90
9371;DHT22;4725;48.384;8.984;2023-05-07T14:54:15;14.50;99.90
9371;DHT22;4725;48.384;8.984;2023-05-07T14:56:42;14.60;99.90
9371;DHT22;4725;48.384;8.984;2023-05-07T14:59:09;14.60;99.90
9371;DHT22;4725;48.384;8.984;2023-05-07T15:01:37;14.90;99.90
9371;DHT22;4725;48.384;8.984;2023-05-07T15:04:05;15.10;99.90
9371;DHT22;4725;48.384;8.984;2023-05-07T15:06:32;15.20;99.90
9371;DHT22;4725;48.384;8.984;2023-05-07T15:08:59;15.30;99.90
9371;DHT22;4725;48.384;8.984;2023-05-07T15:11:27;15.70;99.90
9371;DHT22;4725;48.384;8.984;2023-05-07T15:13:54;15.80;99.90
9371;DHT22;4725;48.384;8.984;2023-05-07T15:16:21;15.80;99.90
9371;DHT22;4725;48.384;8.984;2023-05-07T15:18:48;16.00;99.90
9371;DHT22;4725;48.384;8.984;2023-05-07T15:21:15;15.80;99.90
9371;DHT22;4725;48.384;8.984;2023-05-07T15:23:42;15.60;99.90
9371;DHT22;4725;48.384;8.984;2023-05-07T15:26:10;15.60;99.90
9371;DHT22;4725;48.384;8.984;2023-05-07T15:28:38;15.60;99.90
9371;DHT22;4725;48.384;8.984;2023-05-07T15:31:05;15.50;99.90
9371;DHT22;4725;48.384;8.984;2023-05-07T15:33:33;15.30;99.90
9371;DHT22;4725;48.384;8.984;2023-05-07T15:35:59;15.30;99.90
9371;DHT22;4725;48.384;8.984;2023-05-07T15:38:28;15.30;99.90
9371;DHT22;4725;48.384;8.984;2023-05-07T15:40:55;15.30;99.90
9371;DHT22;4725;48.384;8.984;2023-05-07T15:43:22;15.30;99.90
9371;DHT22;4725;48.384;8.984;2023-05-07T15:45:51;15.30;99.90
9371;DHT22;4725;48.384;8.984;2023-05-07T15:48:19;15.20;99.90
9371;DHT22;4725;48.384;8.984;2023-05-07T15:50:46;15.20;99.90
9371;DHT22;4725;48.384;8.984;2023-05-07T15:53:13;15.10;99.90
9371;DHT22;4725;48.384;8.984;2023-05-07T15:55:40;15.10;99.90
9371;DHT22;4725;48.384;8.984;2023-05-07T15:58:07;15.00;99.90
9371;DHT22;4725;48.384;8.984;2023-05-07T16:00:34;14.70;99.90
9371;DHT22;4725;48.384;8.984;2023-05-07T16:03:03;14.40;99.90
9371;DHT22;4725;48.384;8.984;2023-05-07T16:05:30;14.50;99.90
9371;DHT22;4725;48.384;8.984;2023-05-07T16:07:58;14.40;99.90
9371;DHT22;4725;48.384;8.984;2023-05-07T16:10:26;14.40;99.90
9371;DHT22;4725;48.384;8.984;2023-05-07T16:12:53;14.40;99.90
9371;DHT22;4725;48.384;8.984;2023-05-07T16:15:20;14.30;99.90
9371;DHT22;4725;48.384;8.984;2023-05-07T16:17:47;14.30;99.90
9371;DHT22;4725;48.384;8.984;2023-05-07T16:20:17;14.30;99.90
9371;DHT22;4725;48.384;8.984;2023-05-07T16:22:46;14.30;99.90
9371;DHT22;4725;48.384;8.984;2023-05-07T16:25:13;14.30;99.90
9371;DHT22;4725;48.384;8.984;2023-05-07T16:27:40;14.30;99.90
9371;DHT22;4725;48.384;8.984;2023-05-07T16:30:07;14.20;99.90
9371;DHT22;4725;48.384;8.984;2023-05-07T16:32:34;14.30;99.90
9371;DHT22;4725;48.384;8.984;2023-05-07T16:35:01;14.30;99.90
9371;DHT22;4725;48.384;8.984;2023-05-07T16:37:32;14.40;99.90
9371;DHT22;4725;48.384;8.984;2023-05-07T16:39:59;14.40;99.90
9371;DHT22;4725;48.384;8.984;2023-05-07T16:42:28;14.50;99.90